sensor_id;sensor_type;location;lat;lon;timestamp;temperature;humidity
53752;DHT22;41095;53.090;6.692;2022-12-13T00:01:15;-1.70;99.90
53752;DHT22;41095;53.090;6.692;2022-12-13T00:03:41;-1.50;99.90
53752;DHT22;41095;53.090;6.692;2022-12-13T00:06:08;-1.40;99.90
53752;DHT22;41095;53.090;6.692;2022-12-13T00:08:34;-1.40;99.90
53752;DHT22;41095;53.090;6.692;2022-12-13T00:11:01;-0.50;99.90
53752;DHT22;41095;53.090;6.692;2022-12-13T00:13:28;0.20;99.90
53752;DHT22;41095;53.090;6.692;2022-12-13T00:15:57;-1.10;99.90
53752;DHT22;41095;53.090;6.692;2022-12-13T00:18:23;-1.40;99.90
53752;DHT22;41095;53.090;6.692;2022-12-13T00:20:49;-1.40;99.90
53752;DHT22;41095;53.090;6.692;2022-12-13T00:23:15;-1.40;99.90
53752;DHT22;41095;53.090;6.692;2022-12-13T00:25:41;-1.40;99.90
53752;DHT22;41095;53.090;6.692;2022-12-13T00:28:06;-1.40;99.90
53752;DHT22;41095;53.090;6.692;2022-12-13T00:30:33;-1.30;99.90
53752;DHT22;41095;53.090;6.692;2022-12-13T00:32:58;-1.40;99.90
53752;DHT22;41095;53.090;6.692;2022-12-13T00:35:24;-1.40;99.90
53752;DHT22;41095;53.090;6.692;2022-12-13T00:37:50;-1.40;99.90
53752;DHT22;41095;53.090;6.692;2022-12-13T00:40:15;-2.60;99.90
53752;DHT22;41095;53.090;6.692;2022-12-13T00:42:41;-1.30;99.90
53752;DHT22;41095;53.090;6.692;2022-12-13T00:45:07;-1.40;99.90
53752;DHT22;41095;53.090;6.692;2022-12-13T00:47:34;-1.40;99.90
53752;DHT22;41095;53.090;6.692;2022-12-13T00:50:00;-1.40;99.90
53752;DHT22;41095;53.090;6.692;2022-12-13T00:52:26;-0.50;99.90
53752;DHT22;41095;53.090;6.692;2022-12-13T00:54:51;-1.40;99.90
53752;DHT22;41095;53.090;6.692;2022-12-13T00:57:17;0.00;99.90
53752;DHT22;41095;53.090;6.692;2022-12-13T00:59:43;-1.50;99.90
53752;DHT22;41095;53.090;6.692;2022-12-13T01:02:08;-1.50;99.90
53752;DHT22;41095;53.090;6.692;2022-12-13T01:04:34;-0.20;99.90
53752;DHT22;41095;53.090;6.692;2022-12-13T01:07:00;-0.20;99.90
53752;DHT22;41095;53.090;6.692;2022-12-13T01:09:26;-1.60;99.90
53752;DHT22;41095;53.090;6.692;2022-12-13T01:12:03;-1.30;99.90
53752;DHT22;41095;53.090;6.692;2022-12-13T01:14:30;-1.70;99.90
53752;DHT22;41095;53.090;6.692;2022-12-13T01:16:56;0.10;99.90
53752;DHT22;41095;53.090;6.692;2022-12-13T01:19:24;-0.90;99.90
53752;DHT22;41095;53.090;6.692;2022-12-13T01:21:54;0.00;99.90
53752;DHT22;41095;53.090;6.692;2022-12-13T01:24:20;-1.70;99.90
53752;DHT22;41095;53.090;6.692;2022-12-13T01:26:47;-1.70;99.90
53752;DHT22;41095;53.090;6.692;2022-12-13T01:29:13;-1.70;99.90
53752;DHT22;41095;53.090;6.692;2022-12-13T01:31:39;-1.10;99.90
53752;DHT22;41095;53.090;6.692;2022-12-13T01:34:07;-1.30;99.90
53752;DHT22;41095;53.090;6.692;2022-12-13T01:36:35;0.00;99.90
53752;DHT22;41095;53.090;6.692;2022-12-13T01:39:02;-1.50;99.90
53752;DHT22;41095;53.090;6.692;2022-12-13T01:41:28;-1.50;99.90
53752;DHT22;41095;53.090;6.692;2022-12-13T01:44:02;-1.50;99.90
53752;DHT22;41095;53.090;6.692;2022-12-13T01:46:30;-1.50;99.90
53752;DHT22;41095;53.090;6.692;2022-12-13T01:49:13;-1.50;99.90
53752;DHT22;41095;53.090;6.692;2022-12-13T01:51:53;-1.50;99.90
53752;DHT22;41095;53.090;6.692;2022-12-13T01:54:24;-1.50;99.90
53752;DHT22;41095;53.090;6.692;2022-12-13T01:56:56;0.40;99.90
53752;DHT22;41095;53.090;6.692;2022-12-13T01:59:22;-1.50;99.90
53752;DHT22;41095;53.090;6.692;2022-12-13T02:01:49;-1.50;99.90
53752;DHT22;41095;53.090;6.692;2022-12-13T02:04:22;-1.00;99.90
53752;DHT22;41095;53.090;6.692;2022-12-13T02:06:51;-1.50;99.90
53752;DHT22;41095;53.090;6.692;2022-12-13T02:09:17;-1.50;99.90
53752;DHT22;41095;53.090;6.692;2022-12-13T02:11:44;-0.70;99.90
53752;DHT22;41095;53.090;6.692;2022-12-13T02:14:11;-1.60;99.90
53752;DHT22;41095;53.090;6.692;2022-12-13T02:19:48;-1.60;99.90
53752;DHT22;41095;53.090;6.692;2022-12-13T02:22:32;-1.60;99.90
53752;DHT22;41095;53.090;6.692;2022-12-13T02:30:41;-1.70;99.90
53752;DHT22;41095;53.090;6.692;2022-12-13T02:41:49;-1.80;99.90
53752;DHT22;41095;53.090;6.692;2022-12-13T02:44:25;-1.20;99.90
53752;DHT22;41095;53.090;6.692;2022-12-13T02:46:59;-1.80;99.90
53752;DHT22;41095;53.090;6.692;2022-12-13T02:49:28;-1.80;99.90
53752;DHT22;41095;53.090;6.692;2022-12-13T02:51:56;-1.90;99.90
53752;DHT22;41095;53.090;6.692;2022-12-13T02:54:23;-0.70;99.90
53752;DHT22;41095;53.090;6.692;2022-12-13T02:56:56;-0.20;99.90
53752;DHT22;41095;53.090;6.692;2022-12-13T02:59:28;-1.20;99.90
53752;DHT22;41095;53.090;6.692;2022-12-13T03:05:03;-1.90;99.90
53752;DHT22;41095;53.090;6.692;2022-12-13T03:10:49;-1.90;99.90
53752;DHT22;41095;53.090;6.692;2022-12-13T03:18:32;-2.00;99.90
53752;DHT22;41095;53.090;6.692;2022-12-13T03:21:03;-0.50;99.90
53752;DHT22;41095;53.090;6.692;2022-12-13T03:23:30;-1.90;99.90
53752;DHT22;41095;53.090;6.692;2022-12-13T03:26:00;-1.90;99.90
53752;DHT22;41095;53.090;6.692;2022-12-13T03:28:27;-2.00;99.90
53752;DHT22;41095;53.090;6.692;2022-12-13T03:30:53;-1.30;99.90
53752;DHT22;41095;53.090;6.692;2022-12-13T03:33:18;-2.10;99.90
53752;DHT22;41095;53.090;6.692;2022-12-13T03:35:44;-2.10;99.90
53752;DHT22;41095;53.090;6.692;2022-12-13T03:38:13;-0.60;99.90
53752;DHT22;41095;53.090;6.692;2022-12-13T03:40:39;-2.00;99.90
53752;DHT22;41095;53.090;6.692;2022-12-13T03:43:04;-2.00;99.90
53752;DHT22;41095;53.090;6.692;2022-12-13T03:45:30;-0.80;99.90
53752;DHT22;41095;53.090;6.692;2022-12-13T03:47:56;-1.30;99.90
53752;DHT22;41095;53.090;6.692;2022-12-13T03:50:21;-1.90;99.90
53752;DHT22;41095;53.090;6.692;2022-12-13T03:52:47;-1.90;99.90
53752;DHT22;41095;53.090;6.692;2022-12-13T03:55:15;-1.70;99.90
53752;DHT22;41095;53.090;6.692;2022-12-13T03:57:41;-1.90;99.90
53752;DHT22;41095;53.090;6.692;2022-12-13T04:00:07;-1.60;99.90
53752;DHT22;41095;53.090;6.692;2022-12-13T04:02:33;-2.00;99.90
53752;DHT22;41095;53.090;6.692;2022-12-13T04:04:59;-0.60;99.90
53752;DHT22;41095;53.090;6.692;2022-12-13T04:07:24;-2.00;99.90
53752;DHT22;41095;53.090;6.692;2022-12-13T04:09:50;-2.00;99.90
53752;DHT22;41095;53.090;6.692;2022-12-13T04:12:16;-0.20;99.90
53752;DHT22;41095;53.090;6.692;2022-12-13T04:15:00;-0.20;99.90
53752;DHT22;41095;53.090;6.692;2022-12-13T04:17:26;0.00;99.90
53752;DHT22;41095;53.090;6.692;2022-12-13T04:19:51;-2.00;99.90
53752;DHT22;41095;53.090;6.692;2022-12-13T04:22:17;-2.00;99.90
53752;DHT22;41095;53.090;6.692;2022-12-13T04:24:43;-0.80;99.90
53752;DHT22;41095;53.090;6.692;2022-12-13T04:27:08;-1.20;99.90
53752;DHT22;41095;53.090;6.692;2022-12-13T04:29:34;-2.00;99.90
53752;DHT22;41095;53.090;6.692;2022-12-13T04:32:00;0.00;99.90
53752;DHT22;41095;53.090;6.692;2022-12-13T04:34:25;-2.10;99.90
53752;DHT22;41095;53.090;6.692;2022-12-13T04:36:51;0.00;99.90
53752;DHT22;41095;53.090;6.692;2022-12-13T04:39:17;-2.00;99.90
53752;DHT22;41095;53.090;6.692;2022-12-13T04:41:42;-1.80;99.90
53752;DHT22;41095;53.090;6.692;2022-12-13T04:44:09;-2.10;99.90
53752;DHT22;41095;53.090;6.692;2022-12-13T04:46:35;-2.10;99.90
53752;DHT22;41095;53.090;6.692;2022-12-13T04:49:00;-2.00;99.90
53752;DHT22;41095;53.090;6.692;2022-12-13T04:51:26;-0.70;99.90
53752;DHT22;41095;53.090;6.692;2022-12-13T04:53:52;-2.00;99.90
53752;DHT22;41095;53.090;6.692;2022-12-13T04:56:18;-1.00;99.90
53752;DHT22;41095;53.090;6.692;2022-12-13T04:58:43;-2.00;99.90
53752;DHT22;41095;53.090;6.692;2022-12-13T05:01:10;-2.00;99.90
53752;DHT22;41095;53.090;6.692;2022-12-13T05:03:37;-2.00;99.90
53752;DHT22;41095;53.090;6.692;2022-12-13T05:06:08;-0.20;99.90
53752;DHT22;41095;53.090;6.692;2022-12-13T05:08:35;-2.00;99.90
53752;DHT22;41095;53.090;6.692;2022-12-13T05:11:02;-0.10;99.90
53752;DHT22;41095;53.090;6.692;2022-12-13T05:13:28;-2.00;99.90
53752;DHT22;41095;53.090;6.692;2022-12-13T05:15:55;-2.10;99.90
53752;DHT22;41095;53.090;6.692;2022-12-13T05:18:22;-2.00;99.90
53752;DHT22;41095;53.090;6.692;2022-12-13T05:20:47;-1.30;99.90
53752;DHT22;41095;53.090;6.692;2022-12-13T05:23:16;-2.00;99.90
53752;DHT22;41095;53.090;6.692;2022-12-13T05:25:42;-2.10;99.90
53752;DHT22;41095;53.090;6.692;2022-12-13T05:28:07;-2.10;99.90
53752;DHT22;41095;53.090;6.692;2022-12-13T05:30:33;-0.50;99.90
53752;DHT22;41095;53.090;6.692;2022-12-13T05:32:58;-0.70;99.90
53752;DHT22;41095;53.090;6.692;2022-12-13T05:35:24;-2.20;99.90
53752;DHT22;41095;53.090;6.692;2022-12-13T05:37:51;-2.20;99.90
53752;DHT22;41095;53.090;6.692;2022-12-13T05:40:16;-0.80;99.90
53752;DHT22;41095;53.090;6.692;2022-12-13T05:42:42;-2.20;99.90
53752;DHT22;41095;53.090;6.692;2022-12-13T05:45:08;-2.00;99.90
53752;DHT22;41095;53.090;6.692;2022-12-13T05:47:34;-2.20;99.90
53752;DHT22;41095;53.090;6.692;2022-12-13T05:50:00;-0.30;99.90
53752;DHT22;41095;53.090;6.692;2022-12-13T05:52:25;-2.20;99.90
53752;DHT22;41095;53.090;6.692;2022-12-13T05:54:55;-1.40;99.90
53752;DHT22;41095;53.090;6.692;2022-12-13T05:57:21;-2.30;99.90
53752;DHT22;41095;53.090;6.692;2022-12-13T05:59:47;-2.30;99.90
53752;DHT22;41095;53.090;6.692;2022-12-13T06:02:13;-2.20;99.90
53752;DHT22;41095;53.090;6.692;2022-12-13T06:04:39;-2.20;99.90
53752;DHT22;41095;53.090;6.692;2022-12-13T06:07:04;-0.40;99.90
53752;DHT22;41095;53.090;6.692;2022-12-13T06:09:30;-2.20;99.90
53752;DHT22;41095;53.090;6.692;2022-12-13T06:11:57;-0.60;99.90
53752;DHT22;41095;53.090;6.692;2022-12-13T06:14:23;-2.30;99.90
53752;DHT22;41095;53.090;6.692;2022-12-13T06:16:49;-0.40;99.90
53752;DHT22;41095;53.090;6.692;2022-12-13T06:19:15;-2.30;99.90
53752;DHT22;41095;53.090;6.692;2022-12-13T06:21:41;-2.40;99.90
53752;DHT22;41095;53.090;6.692;2022-12-13T06:24:06;-2.40;99.90
53752;DHT22;41095;53.090;6.692;2022-12-13T06:26:33;-2.40;99.90
53752;DHT22;41095;53.090;6.692;2022-12-13T06:28:58;-2.40;99.90
53752;DHT22;41095;53.090;6.692;2022-12-13T06:31:24;-2.30;99.90
53752;DHT22;41095;53.090;6.692;2022-12-13T06:33:50;-2.40;99.90
53752;DHT22;41095;53.090;6.692;2022-12-13T06:36:16;-1.70;99.90
53752;DHT22;41095;53.090;6.692;2022-12-13T06:38:41;-2.40;99.90
53752;DHT22;41095;53.090;6.692;2022-12-13T06:41:12;-1.60;99.90
53752;DHT22;41095;53.090;6.692;2022-12-13T06:43:41;-2.30;99.90
53752;DHT22;41095;53.090;6.692;2022-12-13T06:46:07;-2.40;99.90
53752;DHT22;41095;53.090;6.692;2022-12-13T06:48:33;-2.40;99.90
53752;DHT22;41095;53.090;6.692;2022-12-13T06:51:06;-2.40;99.90
53752;DHT22;41095;53.090;6.692;2022-12-13T06:53:34;-2.40;99.90
53752;DHT22;41095;53.090;6.692;2022-12-13T06:56:08;-2.40;99.90
53752;DHT22;41095;53.090;6.692;2022-12-13T06:58:35;-1.90;99.90
53752;DHT22;41095;53.090;6.692;2022-12-13T07:01:06;-2.40;99.90
53752;DHT22;41095;53.090;6.692;2022-12-13T07:03:32;-1.90;99.90
53752;DHT22;41095;53.090;6.692;2022-12-13T07:05:59;-2.40;99.90
53752;DHT22;41095;53.090;6.692;2022-12-13T07:08:28;-2.40;99.90
53752;DHT22;41095;53.090;6.692;2022-12-13T07:10:53;-0.50;99.90
53752;DHT22;41095;53.090;6.692;2022-12-13T07:13:20;-2.40;99.90
53752;DHT22;41095;53.090;6.692;2022-12-13T07:15:46;-2.40;99.90
53752;DHT22;41095;53.090;6.692;2022-12-13T07:18:12;-2.40;99.90
53752;DHT22;41095;53.090;6.692;2022-12-13T07:20:39;-2.40;99.90
53752;DHT22;41095;53.090;6.692;2022-12-13T07:23:05;-2.40;99.90
53752;DHT22;41095;53.090;6.692;2022-12-13T07:25:31;-2.40;99.90
53752;DHT22;41095;53.090;6.692;2022-12-13T07:28:03;-2.40;99.90
53752;DHT22;41095;53.090;6.692;2022-12-13T07:30:35;-2.40;99.90
53752;DHT22;41095;53.090;6.692;2022-12-13T07:33:01;-2.40;99.90
53752;DHT22;41095;53.090;6.692;2022-12-13T07:35:28;-1.00;99.90
53752;DHT22;41095;53.090;6.692;2022-12-13T07:37:54;-1.00;99.90
53752;DHT22;41095;53.090;6.692;2022-12-13T07:40:19;-2.10;99.90
53752;DHT22;41095;53.090;6.692;2022-12-13T07:42:52;-2.30;99.90
53752;DHT22;41095;53.090;6.692;2022-12-13T07:45:19;-0.60;99.90
53752;DHT22;41095;53.090;6.692;2022-12-13T07:47:45;-1.40;99.90
53752;DHT22;41095;53.090;6.692;2022-12-13T07:50:11;-1.30;99.90
53752;DHT22;41095;53.090;6.692;2022-12-13T07:52:37;-2.30;99.90
53752;DHT22;41095;53.090;6.692;2022-12-13T07:55:03;-2.30;99.90
53752;DHT22;41095;53.090;6.692;2022-12-13T07:57:29;-2.30;99.90
53752;DHT22;41095;53.090;6.692;2022-12-13T07:59:55;-2.30;99.90
53752;DHT22;41095;53.090;6.692;2022-12-13T08:02:21;-0.80;99.90
53752;DHT22;41095;53.090;6.692;2022-12-13T08:04:46;-2.30;99.90
53752;DHT22;41095;53.090;6.692;2022-12-13T08:07:12;-2.30;99.90
53752;DHT22;41095;53.090;6.692;2022-12-13T08:09:38;-2.10;99.90
53752;DHT22;41095;53.090;6.692;2022-12-13T08:12:04;-2.30;99.90
53752;DHT22;41095;53.090;6.692;2022-12-13T08:14:30;-2.30;99.90
53752;DHT22;41095;53.090;6.692;2022-12-13T08:16:56;-2.20;99.90
53752;DHT22;41095;53.090;6.692;2022-12-13T08:19:22;-2.20;99.90
53752;DHT22;41095;53.090;6.692;2022-12-13T08:21:48;-2.20;99.90
53752;DHT22;41095;53.090;6.692;2022-12-13T08:24:17;-2.20;99.90
53752;DHT22;41095;53.090;6.692;2022-12-13T08:26:43;-2.10;99.90
53752;DHT22;41095;53.090;6.692;2022-12-13T08:29:09;-0.90;99.90
53752;DHT22;41095;53.090;6.692;2022-12-13T08:31:36;-2.00;99.90
53752;DHT22;41095;53.090;6.692;2022-12-13T08:34:01;-1.50;99.90
53752;DHT22;41095;53.090;6.692;2022-12-13T08:36:27;-2.00;99.90
53752;DHT22;41095;53.090;6.692;2022-12-13T08:38:55;-1.90;99.90
53752;DHT22;41095;53.090;6.692;2022-12-13T08:41:21;-1.80;99.90
53752;DHT22;41095;53.090;6.692;2022-12-13T08:43:47;-1.70;99.90
53752;DHT22;41095;53.090;6.692;2022-12-13T08:46:13;0.00;99.90
53752;DHT22;41095;53.090;6.692;2022-12-13T08:48:39;-1.60;99.90
53752;DHT22;41095;53.090;6.692;2022-12-13T08:51:10;-1.40;99.90
53752;DHT22;41095;53.090;6.692;2022-12-13T08:53:37;-1.50;99.90
53752;DHT22;41095;53.090;6.692;2022-12-13T08:56:05;-1.40;99.90
53752;DHT22;41095;53.090;6.692;2022-12-13T08:58:32;-1.30;99.90
53752;DHT22;41095;53.090;6.692;2022-12-13T09:00:58;-1.20;99.90
53752;DHT22;41095;53.090;6.692;2022-12-13T09:03:23;-1.20;99.90
53752;DHT22;41095;53.090;6.692;2022-12-13T09:05:49;-1.10;99.90
53752;DHT22;41095;53.090;6.692;2022-12-13T09:08:16;-1.10;99.90
53752;DHT22;41095;53.090;6.692;2022-12-13T09:10:42;-1.00;99.90
53752;DHT22;41095;53.090;6.692;2022-12-13T09:13:08;-0.90;99.90
53752;DHT22;41095;53.090;6.692;2022-12-13T09:15:37;-0.80;99.90
53752;DHT22;41095;53.090;6.692;2022-12-13T09:18:03;-0.70;99.90
53752;DHT22;41095;53.090;6.692;2022-12-13T09:20:29;-0.70;99.90
53752;DHT22;41095;53.090;6.692;2022-12-13T09:22:55;-0.60;99.90
53752;DHT22;41095;53.090;6.692;2022-12-13T09:25:21;0.40;99.90
53752;DHT22;41095;53.090;6.692;2022-12-13T09:27:47;-0.30;99.90
53752;DHT22;41095;53.090;6.692;2022-12-13T09:30:13;-0.40;99.90
53752;DHT22;41095;53.090;6.692;2022-12-13T09:32:40;-0.40;99.90
53752;DHT22;41095;53.090;6.692;2022-12-13T09:35:06;-0.40;99.90
53752;DHT22;41095;53.090;6.692;2022-12-13T09:37:32;-0.50;99.90
53752;DHT22;41095;53.090;6.692;2022-12-13T09:39:58;0.30;99.90
53752;DHT22;41095;53.090;6.692;2022-12-13T09:42:26;-0.50;99.90
53752;DHT22;41095;53.090;6.692;2022-12-13T09:45:00;0.20;99.90
53752;DHT22;41095;53.090;6.692;2022-12-13T09:47:34;-0.60;99.90
53752;DHT22;41095;53.090;6.692;2022-12-13T09:50:11;-0.10;99.90
53752;DHT22;41095;53.090;6.692;2022-12-13T09:52:40;-0.50;99.90
53752;DHT22;41095;53.090;6.692;2022-12-13T09:55:29;0.70;99.90
53752;DHT22;41095;53.090;6.692;2022-12-13T09:57:57;-0.50;99.90
53752;DHT22;41095;53.090;6.692;2022-12-13T10:00:24;-0.40;99.90
53752;DHT22;41095;53.090;6.692;2022-12-13T10:02:56;-0.40;99.90
53752;DHT22;41095;53.090;6.692;2022-12-13T10:05:29;-0.40;99.90
53752;DHT22;41095;53.090;6.692;2022-12-13T10:07:59;-0.40;99.90
53752;DHT22;41095;53.090;6.692;2022-12-13T10:10:25;-0.40;99.90
53752;DHT22;41095;53.090;6.692;2022-12-13T10:13:20;-0.40;99.90
53752;DHT22;41095;53.090;6.692;2022-12-13T10:16:11;-0.30;99.90
53752;DHT22;41095;53.090;6.692;2022-12-13T10:18:40;-0.20;99.90
53752;DHT22;41095;53.090;6.692;2022-12-13T10:21:21;-0.20;99.90
53752;DHT22;41095;53.090;6.692;2022-12-13T10:23:50;-0.20;99.90
53752;DHT22;41095;53.090;6.692;2022-12-13T10:26:15;0.80;99.90
53752;DHT22;41095;53.090;6.692;2022-12-13T10:28:41;0.50;99.90
53752;DHT22;41095;53.090;6.692;2022-12-13T10:31:15;0.00;99.90
53752;DHT22;41095;53.090;6.692;2022-12-13T10:33:50;0.10;99.90
53752;DHT22;41095;53.090;6.692;2022-12-13T10:36:36;0.40;99.90
53752;DHT22;41095;53.090;6.692;2022-12-13T10:39:18;0.50;99.90
53752;DHT22;41095;53.090;6.692;2022-12-13T10:41:44;0.20;99.90
53752;DHT22;41095;53.090;6.692;2022-12-13T10:44:19;0.20;99.90
53752;DHT22;41095;53.090;6.692;2022-12-13T10:47:13;0.30;99.90
53752;DHT22;41095;53.090;6.692;2022-12-13T10:49:53;1.10;99.90
53752;DHT22;41095;53.090;6.692;2022-12-13T10:52:35;0.40;99.90
53752;DHT22;41095;53.090;6.692;2022-12-13T10:55:21;0.40;99.90
53752;DHT22;41095;53.090;6.692;2022-12-13T10:57:53;0.40;99.90
53752;DHT22;41095;53.090;6.692;2022-12-13T11:02:58;0.50;99.90
53752;DHT22;41095;53.090;6.692;2022-12-13T11:05:27;0.70;99.90
53752;DHT22;41095;53.090;6.692;2022-12-13T11:07:53;0.50;99.90
53752;DHT22;41095;53.090;6.692;2022-12-13T11:10:27;0.60;99.90
53752;DHT22;41095;53.090;6.692;2022-12-13T11:12:59;0.60;99.90
53752;DHT22;41095;53.090;6.692;2022-12-13T11:15:26;0.60;99.90
53752;DHT22;41095;53.090;6.692;2022-12-13T11:18:15;0.60;99.90
53752;DHT22;41095;53.090;6.692;2022-12-13T11:20:58;0.70;99.90
53752;DHT22;41095;53.090;6.692;2022-12-13T11:26:07;0.80;99.90
53752;DHT22;41095;53.090;6.692;2022-12-13T11:37:25;0.90;99.90
53752;DHT22;41095;53.090;6.692;2022-12-13T11:42:42;1.10;99.90
53752;DHT22;41095;53.090;6.692;2022-12-13T11:45:23;1.00;99.90
53752;DHT22;41095;53.090;6.692;2022-12-13T11:55:58;1.20;99.90
53752;DHT22;41095;53.090;6.692;2022-12-13T12:01:08;1.20;99.90
53752;DHT22;41095;53.090;6.692;2022-12-13T12:03:49;1.20;99.90
53752;DHT22;41095;53.090;6.692;2022-12-13T12:06:20;2.20;99.90
53752;DHT22;41095;53.090;6.692;2022-12-13T12:08:55;2.20;99.90
53752;DHT22;41095;53.090;6.692;2022-12-13T12:11:31;1.30;99.90
53752;DHT22;41095;53.090;6.692;2022-12-13T12:19:16;1.30;99.90
53752;DHT22;41095;53.090;6.692;2022-12-13T12:24:52;1.40;99.90
53752;DHT22;41095;53.090;6.692;2022-12-13T12:27:34;2.00;99.90
53752;DHT22;41095;53.090;6.692;2022-12-13T12:33:08;1.50;99.90
53752;DHT22;41095;53.090;6.692;2022-12-13T12:43:44;2.10;99.90
53752;DHT22;41095;53.090;6.692;2022-12-13T12:51:58;1.50;99.90
53752;DHT22;41095;53.090;6.692;2022-12-13T13:00:12;1.50;99.90
53752;DHT22;41095;53.090;6.692;2022-12-13T13:03:01;1.40;99.90
53752;DHT22;41095;53.090;6.692;2022-12-13T13:05:37;1.40;99.90
53752;DHT22;41095;53.090;6.692;2022-12-13T13:08:16;1.40;99.90
53752;DHT22;41095;53.090;6.692;2022-12-13T13:10:45;2.50;99.90
53752;DHT22;41095;53.090;6.692;2022-12-13T13:13:43;1.30;99.90
53752;DHT22;41095;53.090;6.692;2022-12-13T13:16:37;1.30;99.90
53752;DHT22;41095;53.090;6.692;2022-12-13T13:21:51;1.70;99.90
53752;DHT22;41095;53.090;6.692;2022-12-13T13:34:43;1.20;99.90
53752;DHT22;41095;53.090;6.692;2022-12-13T13:39:59;1.80;99.90
53752;DHT22;41095;53.090;6.692;2022-12-13T13:42:27;1.20;99.90
53752;DHT22;41095;53.090;6.692;2022-12-13T13:45:02;1.50;99.90
53752;DHT22;41095;53.090;6.692;2022-12-13T13:47:42;1.10;99.90
53752;DHT22;41095;53.090;6.692;2022-12-13T13:55:46;1.10;99.90
53752;DHT22;41095;53.090;6.692;2022-12-13T14:15:35;1.10;99.90
53752;DHT22;41095;53.090;6.692;2022-12-13T14:23:36;0.90;99.90
53752;DHT22;41095;53.090;6.692;2022-12-13T14:28:55;2.20;99.90
53752;DHT22;41095;53.090;6.692;2022-12-13T14:31:25;0.80;99.90
53752;DHT22;41095;53.090;6.692;2022-12-13T14:33:55;1.80;99.90
53752;DHT22;41095;53.090;6.692;2022-12-13T14:36:27;2.20;99.90
53752;DHT22;41095;53.090;6.692;2022-12-13T14:39:05;1.20;99.90
53752;DHT22;41095;53.090;6.692;2022-12-13T14:41:31;0.80;99.90
53752;DHT22;41095;53.090;6.692;2022-12-13T14:44:26;1.40;99.90
53752;DHT22;41095;53.090;6.692;2022-12-13T14:47:03;1.10;99.90
53752;DHT22;41095;53.090;6.692;2022-12-13T14:49:32;1.20;99.90
53752;DHT22;41095;53.090;6.692;2022-12-13T14:52:04;2.20;99.90
53752;DHT22;41095;53.090;6.692;2022-12-13T14:54:43;2.00;99.90
53752;DHT22;41095;53.090;6.692;2022-12-13T14:57:24;2.00;99.90
53752;DHT22;41095;53.090;6.692;2022-12-13T14:59:52;0.70;99.90
53752;DHT22;41095;53.090;6.692;2022-12-13T15:02:22;0.80;99.90
53752;DHT22;41095;53.090;6.692;2022-12-13T15:04:55;1.40;99.90
53752;DHT22;41095;53.090;6.692;2022-12-13T15:09:58;0.50;99.90
53752;DHT22;41095;53.090;6.692;2022-12-13T15:12:25;0.50;99.90
53752;DHT22;41095;53.090;6.692;2022-12-13T15:15:00;0.70;99.90
53752;DHT22;41095;53.090;6.692;2022-12-13T15:17:31;0.50;99.90
53752;DHT22;41095;53.090;6.692;2022-12-13T15:19:57;0.50;99.90
53752;DHT22;41095;53.090;6.692;2022-12-13T15:22:23;0.40;99.90
53752;DHT22;41095;53.090;6.692;2022-12-13T15:24:50;1.70;99.90
53752;DHT22;41095;53.090;6.692;2022-12-13T15:27:20;1.80;99.90
53752;DHT22;41095;53.090;6.692;2022-12-13T15:29:47;0.60;99.90
53752;DHT22;41095;53.090;6.692;2022-12-13T15:32:16;0.10;99.90
53752;DHT22;41095;53.090;6.692;2022-12-13T15:34:45;0.30;99.90
53752;DHT22;41095;53.090;6.692;2022-12-13T15:37:34;0.20;99.90
53752;DHT22;41095;53.090;6.692;2022-12-13T15:40:05;0.10;99.90
53752;DHT22;41095;53.090;6.692;2022-12-13T15:42:36;0.10;99.90
53752;DHT22;41095;53.090;6.692;2022-12-13T15:45:05;1.20;99.90
53752;DHT22;41095;53.090;6.692;2022-12-13T15:47:33;-0.20;99.90
53752;DHT22;41095;53.090;6.692;2022-12-13T15:50:04;-0.20;99.90
53752;DHT22;41095;53.090;6.692;2022-12-13T15:52:38;-0.30;99.90
53752;DHT22;41095;53.090;6.692;2022-12-13T15:57:56;0.60;99.90
53752;DHT22;41095;53.090;6.692;2022-12-13T16:00:25;-0.30;99.90
53752;DHT22;41095;53.090;6.692;2022-12-13T16:02:56;-0.30;99.90
53752;DHT22;41095;53.090;6.692;2022-12-13T16:07:51;-0.40;99.90
53752;DHT22;41095;53.090;6.692;2022-12-13T16:10:18;0.50;99.90
53752;DHT22;41095;53.090;6.692;2022-12-13T16:13:02;-0.20;99.90
53752;DHT22;41095;53.090;6.692;2022-12-13T16:15:49;-0.30;99.90
53752;DHT22;41095;53.090;6.692;2022-12-13T16:18:40;0.00;99.90
53752;DHT22;41095;53.090;6.692;2022-12-13T16:21:08;-0.50;99.90
53752;DHT22;41095;53.090;6.692;2022-12-13T16:23:33;-0.30;99.90
53752;DHT22;41095;53.090;6.692;2022-12-13T16:25:59;-0.50;99.90
53752;DHT22;41095;53.090;6.692;2022-12-13T16:28:25;0.70;99.90
53752;DHT22;41095;53.090;6.692;2022-12-13T16:30:56;-0.50;99.90
53752;DHT22;41095;53.090;6.692;2022-12-13T16:33:24;-0.60;99.90
53752;DHT22;41095;53.090;6.692;2022-12-13T16:35:51;-0.60;99.90
53752;DHT22;41095;53.090;6.692;2022-12-13T16:38:17;0.10;99.90
53752;DHT22;41095;53.090;6.692;2022-12-13T16:40:44;-0.30;99.90
53752;DHT22;41095;53.090;6.692;2022-12-13T16:43:18;0.50;99.90
53752;DHT22;41095;53.090;6.692;2022-12-13T16:45:48;-0.70;99.90
53752;DHT22;41095;53.090;6.692;2022-12-13T16:48:17;-0.80;99.90
53752;DHT22;41095;53.090;6.692;2022-12-13T16:50:45;-0.80;99.90
53752;DHT22;41095;53.090;6.692;2022-12-13T16:53:11;-0.80;99.90
53752;DHT22;41095;53.090;6.692;2022-12-13T16:55:37;-0.40;99.90
53752;DHT22;41095;53.090;6.692;2022-12-13T16:58:05;-0.20;99.90
53752;DHT22;41095;53.090;6.692;2022-12-13T17:00:32;-0.70;99.90
53752;DHT22;41095;53.090;6.692;2022-12-13T17:02:58;0.00;99.90
53752;DHT22;41095;53.090;6.692;2022-12-13T17:05:26;-0.90;99.90
53752;DHT22;41095;53.090;6.692;2022-12-13T17:07:52;-0.20;99.90
53752;DHT22;41095;53.090;6.692;2022-12-13T17:10:18;-0.90;99.90
53752;DHT22;41095;53.090;6.692;2022-12-13T17:12:44;-0.90;99.90
53752;DHT22;41095;53.090;6.692;2022-12-13T17:15:11;-0.90;99.90
53752;DHT22;41095;53.090;6.692;2022-12-13T17:17:39;-0.20;99.90
53752;DHT22;41095;53.090;6.692;2022-12-13T17:20:06;-0.90;99.90
53752;DHT22;41095;53.090;6.692;2022-12-13T17:22:34;-1.00;99.90
53752;DHT22;41095;53.090;6.692;2022-12-13T17:25:00;0.40;99.90
53752;DHT22;41095;53.090;6.692;2022-12-13T17:27:25;-0.90;99.90
53752;DHT22;41095;53.090;6.692;2022-12-13T17:29:51;-1.00;99.90
53752;DHT22;41095;53.090;6.692;2022-12-13T17:32:17;-1.00;99.90
53752;DHT22;41095;53.090;6.692;2022-12-13T17:34:43;-1.10;99.90
53752;DHT22;41095;53.090;6.692;2022-12-13T17:37:08;0.50;99.90
53752;DHT22;41095;53.090;6.692;2022-12-13T17:39:34;-1.20;99.90
53752;DHT22;41095;53.090;6.692;2022-12-13T17:42:00;-0.60;99.90
53752;DHT22;41095;53.090;6.692;2022-12-13T17:44:26;-1.00;99.90
53752;DHT22;41095;53.090;6.692;2022-12-13T17:46:52;0.50;99.90
53752;DHT22;41095;53.090;6.692;2022-12-13T17:49:18;-1.10;99.90
53752;DHT22;41095;53.090;6.692;2022-12-13T17:51:44;-1.10;99.90
53752;DHT22;41095;53.090;6.692;2022-12-13T17:54:10;-1.10;99.90
53752;DHT22;41095;53.090;6.692;2022-12-13T17:56:36;-1.00;99.90
53752;DHT22;41095;53.090;6.692;2022-12-13T17:59:03;-1.00;99.90
53752;DHT22;41095;53.090;6.692;2022-12-13T18:01:29;-1.10;99.90
53752;DHT22;41095;53.090;6.692;2022-12-13T18:03:55;-1.10;99.90
53752;DHT22;41095;53.090;6.692;2022-12-13T18:06:25;-0.30;99.90
53752;DHT22;41095;53.090;6.692;2022-12-13T18:08:51;-1.10;99.90